Terminal Aerodrome Forecast
Issued by NWS

Home | Current Version | Previous Version | Text Only | Print | Product List | Glossary On
Versions: 1 2 3 4 5 6 7 8 9 10 11 12 13 14
000
FTUS45 KPSR 171100
TAFIPL
TAF
KIPL 171120Z 1712/1812 VRB04KT P6SM SCT080
     FM171800 29010KT P6SM SCT080
     FM180600 27008KT P6SM FEW080=

USA.gov is the U.S. government's official web portal to all federal, state and local government web resources and services.